Time;durP1;ratioP1;P1;durP2;ratioP2;P2;SDS_P1;SDS_P2;PMS_P1;PMS_P2;Temp;Humidity;BMP_temperature;BMP_pressure;BME280_temperature;BME280_humidity;BME280_pressure;Samples;Min_cycle;Max_cycle;Signal;HPM_P1;HPM_P2
2022/06/24 00:00:01;;;;;;;3.60;1.80;;;23.40;90.10;;;;;;5043595;28;21009;-69
2022/06/24 00:02:30;;;;;;;3.47;2.20;;;23.40;90.30;;;;;;5039455;28;20989;-69
2022/06/24 00:04:57;;;;;;;2.57;1.53;;;23.30;90.50;;;;;;5047804;28;20446;-69
2022/06/24 00:07:22;;;;;;;1.50;1.40;;;23.10;91.10;;;;;;5046292;28;20581;-68
2022/06/24 00:09:49;;;;;;;1.87;1.50;;;23.10;91.30;;;;;;5048781;28;20449;-69
2022/06/24 00:12:25;;;;;;;3.47;1.50;;;23.00;91.80;;;;;;5039734;28;20219;-68
2022/06/24 00:14:59;;;;;;;2.63;1.63;;;22.90;92.30;;;;;;5043554;28;20524;-67
2022/06/24 00:17:29;;;;;;;2.20;1.50;;;22.70;92.70;;;;;;5051557;28;20485;-69
2022/06/24 00:19:58;;;;;;;3.77;1.60;;;22.60;93.10;;;;;;5044892;28;20466;-67
2022/06/24 00:22:25;;;;;;;3.73;1.60;;;22.60;93.80;;;;;;5050377;28;20452;-69
2022/06/24 00:25:07;;;;;;;3.60;1.53;;;22.60;94.10;;;;;;5038727;28;20451;-69
2022/06/24 00:27:33;;;;;;;3.63;1.70;;;22.60;94.30;;;;;;5026739;28;20474;-68
2022/06/24 00:30:16;;;;;;;3.70;1.70;;;22.60;94.50;;;;;;5046164;28;20529;-68
2022/06/24 00:32:43;;;;;;;6.90;1.80;;;22.70;94.90;;;;;;5035592;28;20274;-68
2022/06/24 00:35:11;;;;;;;1.73;1.63;;;22.70;95.10;;;;;;5028261;28;20536;-68
2022/06/24 00:37:38;;;;;;;3.90;1.70;;;22.60;95.70;;;;;;5042280;28;20467;-67
2022/06/24 00:40:10;;;;;;;1.63;1.40;;;22.50;96.40;;;;;;5050368;28;20521;-68
2022/06/24 00:42:44;;;;;;;5.30;1.80;;;22.50;96.60;;;;;;5046569;28;20447;-68
2022/06/24 00:45:22;;;;;;;1.83;1.73;;;22.60;96.70;;;;;;5034499;28;20656;-68
2022/06/24 00:47:48;;;;;;;2.50;2.00;;;22.70;96.50;;;;;;5036372;28;20859;-68
2022/06/24 00:50:26;;;;;;;1.93;1.50;;;22.70;96.60;;;;;;5053395;28;20481;-68
2022/06/24 00:52:57;;;;;;;1.83;1.53;;;22.70;97.10;;;;;;5051961;28;20456;-68
2022/06/24 00:55:28;;;;;;;1.50;1.40;;;22.70;96.80;;;;;;5027298;28;20549;-69
2022/06/24 00:57:58;;;;;;;1.60;1.40;;;22.80;96.40;;;;;;5045965;28;20503;-69
2022/06/24 01:00:26;;;;;;;1.57;1.47;;;23.00;96.30;;;;;;5043114;28;20458;-69
2022/06/24 01:03:00;;;;;;;4.43;1.90;;;23.10;95.90;;;;;;5039683;28;20451;-69
2022/06/24 01:05:28;;;;;;;2.07;1.63;;;23.20;96.00;;;;;;5041217;28;20519;-68
2022/06/24 01:07:54;;;;;;;3.27;1.57;;;23.20;95.90;;;;;;5052905;28;20492;-69
2022/06/24 01:10:20;;;;;;;6.63;1.83;;;23.20;95.80;;;;;;5047739;28;20498;-69
2022/06/24 01:12:46;;;;;;;1.53;1.20;;;23.30;95.50;;;;;;5031567;28;20215;-66
2022/06/24 01:15:12;;;;;;;5.27;2.07;;;23.30;95.50;;;;;;5041021;28;20657;-69
2022/06/24 01:17:38;;;;;;;1.40;1.30;;;23.30;95.70;;;;;;5040896;28;20236;-67
2022/06/24 01:20:07;;;;;;;1.63;1.53;;;23.30;95.40;;;;;;5032319;28;20873;-68
2022/06/24 01:22:33;;;;;;;2.90;1.77;;;23.40;95.50;;;;;;5064476;28;20227;-68
2022/06/24 01:24:58;;;;;;;2.00;1.40;;;23.40;95.40;;;;;;5050100;28;20461;-68
2022/06/24 01:27:24;;;;;;;1.53;1.33;;;23.40;95.40;;;;;;5036382;28;20219;-68
2022/06/24 01:29:50;;;;;;;3.20;1.80;;;23.50;95.70;;;;;;5054878;28;20219;-69
2022/06/24 01:32:16;;;;;;;1.30;1.20;;;23.50;95.70;;;;;;5028790;28;20568;-69
2022/06/24 01:34:42;;;;;;;4.73;1.60;;;23.60;95.90;;;;;;5050810;28;20219;-69
2022/06/24 01:37:07;;;;;;;4.13;1.87;;;23.60;96.30;;;;;;5038958;28;20544;-68
2022/06/24 01:39:33;;;;;;;2.10;1.70;;;23.60;96.60;;;;;;5041423;28;20235;-68
2022/06/24 01:41:59;;;;;;;2.50;1.30;;;23.60;96.40;;;;;;5052548;28;20298;-69
2022/06/24 01:44:26;;;;;;;2.93;1.60;;;23.60;96.50;;;;;;5049826;28;20255;-69
2022/06/24 01:46:52;;;;;;;3.03;1.60;;;23.60;96.40;;;;;;5040052;28;20976;-69
2022/06/24 01:49:18;;;;;;;2.10;1.83;;;23.60;96.20;;;;;;5049389;28;20974;-69
2022/06/24 01:51:47;;;;;;;3.80;1.60;;;23.60;95.90;;;;;;5044089;28;20929;-69
2022/06/24 01:54:12;;;;;;;2.27;1.80;;;23.60;96.10;;;;;;5034247;28;20467;-69
2022/06/24 01:56:38;;;;;;;4.40;2.20;;;23.50;96.20;;;;;;5033234;28;20450;-69
2022/06/24 01:59:04;;;;;;;4.87;1.63;;;23.50;96.10;;;;;;5047736;28;20984;-69
2022/06/24 02:01:30;;;;;;;3.27;1.47;;;23.50;96.00;;;;;;5033153;28;20212;-69
2022/06/24 02:03:56;;;;;;;5.00;1.87;;;23.50;96.50;;;;;;5050720;28;20719;-69
2022/06/24 02:06:21;;;;;;;5.07;1.20;;;23.40;96.60;;;;;;5051585;28;20442;-69
2022/06/24 02:08:48;;;;;;;2.70;1.40;;;23.40;96.60;;;;;;5048526;28;20297;-69
2022/06/24 02:14:00;;;;;;;7.03;1.67;;;23.40;96.60;;;;;;5049700;28;20468;-69
2022/06/24 02:16:26;;;;;;;1.97;1.33;;;23.40;96.40;;;;;;5037557;28;20454;-69
2022/06/24 02:18:54;;;;;;;2.77;1.57;;;23.40;96.50;;;;;;5051601;28;20520;-69
2022/06/24 02:21:22;;;;;;;4.60;1.67;;;23.40;96.40;;;;;;5049449;28;20449;-69
2022/06/24 02:23:48;;;;;;;2.00;1.50;;;23.40;96.40;;;;;;5050388;28;20531;-69
2022/06/24 02:26:13;;;;;;;1.20;1.10;;;23.40;96.70;;;;;;5034550;28;20871;-69
2022/06/24 02:28:39;;;;;;;2.33;1.47;;;23.30;96.90;;;;;;5028001;28;20455;-67
2022/06/24 02:31:05;;;;;;;1.77;1.67;;;23.30;96.90;;;;;;5047567;28;20242;-69
2022/06/24 02:33:32;;;;;;;5.23;1.97;;;23.20;97.00;;;;;;5046799;28;20767;-68
2022/06/24 02:35:58;;;;;;;2.70;1.47;;;23.30;97.40;;;;;;5046093;28;20457;-69
2022/06/24 02:38:24;;;;;;;1.43;1.30;;;23.30;96.90;;;;;;5047738;28;20545;-69
2022/06/24 02:40:51;;;;;;;1.30;1.20;;;23.30;96.90;;;;;;5049878;28;20222;-69
2022/06/24 02:43:18;;;;;;;3.80;1.77;;;23.20;96.70;;;;;;5050224;28;20457;-69
2022/06/24 02:45:59;;;;;;;1.70;1.60;;;23.30;96.70;;;;;;5050358;28;20466;-69
2022/06/24 02:48:24;;;;;;;7.00;1.80;;;23.30;96.80;;;;;;5048792;28;20472;-69
2022/06/24 02:50:51;;;;;;;2.93;2.63;;;23.30;96.80;;;;;;5050256;28;20453;-69
2022/06/24 02:53:18;;;;;;;2.00;1.70;;;23.30;96.80;;;;;;5051001;28;20224;-69
2022/06/24 02:55:46;;;;;;;4.93;2.07;;;23.30;96.70;;;;;;5044259;28;20478;-68
2022/06/24 02:58:12;;;;;;;3.20;1.70;;;23.30;96.70;;;;;;5046014;28;20462;-68
2022/06/24 03:00:41;;;;;;;2.13;1.40;;;23.30;96.70;;;;;;5046607;28;20470;-69
2022/06/24 03:03:08;;;;;;;2.30;1.63;;;23.30;96.70;;;;;;5032129;28;20451;-68
2022/06/24 03:05:34;;;;;;;2.80;1.47;;;23.20;97.10;;;;;;5040850;28;20454;-68
2022/06/24 03:07:59;;;;;;;1.70;1.60;;;23.20;97.00;;;;;;5032576;28;20474;-69
2022/06/24 03:10:25;;;;;;;1.70;1.60;;;23.20;96.90;;;;;;5046971;28;20503;-69
2022/06/24 03:12:51;;;;;;;2.03;1.70;;;23.20;96.90;;;;;;5045073;28;20224;-69
2022/06/24 03:15:17;;;;;;;1.97;1.77;;;23.20;97.10;;;;;;5046661;28;20302;-69
2022/06/24 03:17:43;;;;;;;2.90;1.90;;;23.20;97.10;;;;;;5048050;28;20227;-70
2022/06/24 03:20:09;;;;;;;2.97;2.23;;;23.20;97.00;;;;;;5042708;28;21073;-68
2022/06/24 03:22:36;;;;;;;2.17;1.80;;;23.20;97.00;;;;;;5032260;28;20568;-69
2022/06/24 03:25:05;;;;;;;1.77;1.67;;;23.20;97.00;;;;;;5032431;28;20993;-69
2022/06/24 03:27:31;;;;;;;2.70;1.70;;;23.20;97.00;;;;;;5045109;28;20588;-69
2022/06/24 03:29:57;;;;;;;2.27;2.00;;;23.10;97.00;;;;;;5038192;28;20898;-69
2022/06/24 03:32:23;;;;;;;3.13;1.87;;;23.10;97.00;;;;;;5030401;28;20490;-69
2022/06/24 03:34:49;;;;;;;4.60;2.17;;;23.10;97.00;;;;;;5048909;28;20215;-67
2022/06/24 03:37:14;;;;;;;2.07;1.87;;;23.10;97.10;;;;;;5039846;28;20761;-69
2022/06/24 03:39:40;;;;;;;4.73;1.73;;;23.10;97.10;;;;;;5045082;28;20261;-67
2022/06/24 03:42:06;;;;;;;8.70;1.73;;;23.00;97.20;;;;;;5041786;28;20204;-69
2022/06/24 03:44:32;;;;;;;4.93;3.20;;;23.10;97.30;;;;;;5040734;28;20269;-68
2022/06/24 03:46:58;;;;;;;3.43;2.10;;;23.10;97.30;;;;;;5039269;28;20484;-69
2022/06/24 03:49:23;;;;;;;2.07;1.80;;;23.00;97.20;;;;;;5041992;28;20258;-69
2022/06/24 03:51:49;;;;;;;3.67;1.60;;;23.00;97.40;;;;;;5036417;28;20236;-68
2022/06/24 03:54:15;;;;;;;2.27;1.60;;;23.00;97.40;;;;;;5033518;28;20223;-69
2022/06/24 03:56:41;;;;;;;2.30;2.10;;;23.00;97.50;;;;;;5039893;28;20216;-69
2022/06/24 03:59:07;;;;;;;2.90;1.80;;;22.90;97.60;;;;;;5042002;28;20274;-69
2022/06/24 04:01:33;;;;;;;3.00;1.70;;;23.00;97.60;;;;;;5031045;28;20454;-68
2022/06/24 04:03:58;;;;;;;3.43;2.17;;;23.00;97.80;;;;;;5049075;28;20221;-69
2022/06/24 04:06:24;;;;;;;4.30;1.97;;;22.90;97.50;;;;;;5047442;28;20777;-69
2022/06/24 04:08:52;;;;;;;3.37;1.60;;;22.90;97.70;;;;;;5044265;28;20228;-68
2022/06/24 04:11:18;;;;;;;3.70;1.73;;;22.90;97.70;;;;;;5032825;28;20247;-70
2022/06/24 04:13:44;;;;;;;3.63;2.07;;;22.90;97.90;;;;;;5030944;28;20463;-69
2022/06/24 04:16:10;;;;;;;3.47;2.43;;;22.90;97.90;;;;;;5025568;28;20517;-68
2022/06/24 04:18:36;;;;;;;3.53;2.23;;;22.90;97.90;;;;;;5020057;28;20223;-69
2022/06/24 04:21:02;;;;;;;3.53;1.93;;;22.90;97.90;;;;;;5041833;28;20465;-68
2022/06/24 04:23:28;;;;;;;3.37;2.10;;;22.90;98.00;;;;;;5029327;28;20566;-69
2022/06/24 04:25:54;;;;;;;3.57;2.17;;;22.90;97.90;;;;;;5031528;28;20535;-69
2022/06/24 04:28:20;;;;;;;4.90;2.37;;;22.90;98.10;;;;;;5040409;28;20712;-70
2022/06/24 04:30:46;;;;;;;3.37;2.20;;;22.80;98.00;;;;;;5030379;28;20212;-69
2022/06/24 04:33:12;;;;;;;2.47;2.27;;;22.80;97.90;;;;;;5045507;28;20468;-69
2022/06/24 04:35:40;;;;;;;2.60;1.70;;;22.80;97.90;;;;;;5039067;28;20665;-69
2022/06/24 04:38:05;;;;;;;3.73;2.10;;;22.80;98.10;;;;;;5036879;28;20232;-68
2022/06/24 04:40:31;;;;;;;2.00;1.83;;;22.80;98.20;;;;;;5046730;28;20554;-69
2022/06/24 04:42:57;;;;;;;2.50;2.13;;;22.80;98.10;;;;;;5044143;28;20227;-68
2022/06/24 04:45:22;;;;;;;2.73;2.30;;;22.80;98.10;;;;;;5046096;28;20703;-69
2022/06/24 04:47:48;;;;;;;4.10;1.87;;;22.80;98.20;;;;;;5034450;28;20223;-69
2022/06/24 04:50:14;;;;;;;3.20;2.50;;;22.80;98.10;;;;;;5032707;28;20451;-69
2022/06/24 04:52:40;;;;;;;2.90;1.90;;;22.80;98.30;;;;;;5035700;28;20236;-69
2022/06/24 04:55:07;;;;;;;3.00;2.17;;;22.70;98.40;;;;;;5020738;28;20573;-69
2022/06/24 04:57:33;;;;;;;5.43;2.10;;;22.70;98.30;;;;;;5041067;28;20216;-69
2022/06/24 04:59:59;;;;;;;2.60;2.40;;;22.70;98.30;;;;;;5040801;28;20533;-69
2022/06/24 05:02:25;;;;;;;2.93;2.00;;;22.70;98.40;;;;;;5041316;28;20499;-68
2022/06/24 05:04:51;;;;;;;4.93;2.40;;;22.70;98.50;;;;;;5043235;28;20461;-67
2022/06/24 05:07:17;;;;;;;3.63;2.47;;;22.70;98.50;;;;;;5037739;28;20462;-69
2022/06/24 05:09:43;;;;;;;3.57;1.90;;;22.60;98.60;;;;;;5031102;28;20976;-69
2022/06/24 05:12:09;;;;;;;5.07;2.37;;;22.60;98.50;;;;;;5042717;28;20688;-67
2022/06/24 05:14:35;;;;;;;3.03;2.70;;;22.60;98.70;;;;;;5035975;28;20232;-69
2022/06/24 05:17:01;;;;;;;5.17;2.33;;;22.60;99.20;;;;;;5050799;28;20445;-68
2022/06/24 05:19:27;;;;;;;4.17;2.33;;;22.60;98.90;;;;;;5052735;28;20545;-68
2022/06/24 05:21:53;;;;;;;4.30;2.20;;;22.60;99.00;;;;;;5050749;28;20538;-68
2022/06/24 05:24:19;;;;;;;2.73;2.10;;;22.50;99.10;;;;;;5031944;28;20243;-69
2022/06/24 05:26:45;;;;;;;3.43;2.00;;;22.50;99.00;;;;;;5050381;28;20461;-68
2022/06/24 05:29:11;;;;;;;2.60;2.13;;;22.50;99.00;;;;;;5038190;28;20235;-68
2022/06/24 05:31:37;;;;;;;2.90;2.70;;;22.50;99.20;;;;;;5048152;28;20460;-67
2022/06/24 05:34:03;;;;;;;2.70;2.40;;;22.50;99.00;;;;;;5030951;28;20224;-68
2022/06/24 05:36:29;;;;;;;3.13;2.40;;;22.50;99.10;;;;;;5038075;28;20508;-70
2022/06/24 05:38:55;;;;;;;3.53;2.83;;;22.50;99.00;;;;;;5039873;28;20454;-69
2022/06/24 05:41:21;;;;;;;2.10;2.00;;;22.50;99.10;;;;;;5036295;28;20270;-69
2022/06/24 05:43:46;;;;;;;3.43;2.67;;;22.40;99.60;;;;;;5042899;28;20227;-69
2022/06/24 05:46:13;;;;;;;3.13;2.83;;;22.40;99.90;;;;;;5033863;28;20465;-69
2022/06/24 05:48:39;;;;;;;2.70;2.20;;;22.30;99.70;;;;;;5029321;28;20769;-69
2022/06/24 05:51:13;;;;;;;2.47;2.27;;;22.30;99.80;;;;;;5029890;28;20967;-69
2022/06/24 05:56:24;;;;;;;3.13;2.83;;;22.40;99.90;;;;;;5048740;28;20879;-69
2022/06/24 05:58:50;;;;;;;4.30;2.40;;;22.40;99.90;;;;;;5040056;28;20466;-69
2022/06/24 06:01:16;;;;;;;5.30;2.80;;;22.40;99.90;;;;;;5038419;28;20455;-69
2022/06/24 06:03:42;;;;;;;3.53;2.80;;;22.30;99.90;;;;;;5022006;28;20462;-69
2022/06/24 06:06:09;;;;;;;6.90;2.63;;;22.30;99.90;;;;;;5039677;28;20484;-69
2022/06/24 06:08:35;;;;;;;2.97;2.70;;;22.30;99.90;;;;;;5040820;28;20227;-69
2022/06/24 06:11:01;;;;;;;4.53;2.80;;;22.30;99.90;;;;;;5038822;28;20494;-69
2022/06/24 06:13:27;;;;;;;3.80;3.13;;;22.30;99.90;;;;;;5042152;28;20473;-69
2022/06/24 06:15:53;;;;;;;6.30;3.37;;;22.30;99.90;;;;;;5029772;28;20458;-69
2022/06/24 06:18:18;;;;;;;2.97;2.77;;;22.30;99.90;;;;;;5041973;28;20232;-70
2022/06/24 06:20:44;;;;;;;3.80;3.27;;;22.30;99.90;;;;;;5030190;28;20228;-69
2022/06/24 06:23:11;;;;;;;4.30;3.30;;;22.30;99.90;;;;;;5043908;28;20227;-69
2022/06/24 06:25:37;;;;;;;3.57;3.30;;;22.30;99.90;;;;;;5039035;28;20285;-69
2022/06/24 06:28:03;;;;;;;3.50;3.10;;;22.20;99.90;;;;;;5049271;28;20986;-68
2022/06/24 06:30:31;;;;;;;3.13;2.90;;;22.20;99.90;;;;;;5024300;28;20231;-69
2022/06/24 06:32:57;;;;;;;3.40;3.20;;;22.20;99.90;;;;;;5041664;28;20215;-69
2022/06/24 06:35:22;;;;;;;3.50;3.20;;;22.20;99.90;;;;;;5038061;28;20461;-68
2022/06/24 06:37:48;;;;;;;7.60;3.70;;;22.20;99.90;;;;;;5040409;28;20231;-69
2022/06/24 06:40:14;;;;;;;4.00;3.60;;;22.20;99.90;;;;;;5044581;28;20223;-69
2022/06/24 06:42:39;;;;;;;3.87;3.47;;;22.20;99.90;;;;;;5037704;28;20285;-69
2022/06/24 06:45:06;;;;;;;4.80;3.63;;;22.30;99.90;;;;;;5041294;28;20483;-69
2022/06/24 06:47:31;;;;;;;2.90;2.80;;;22.20;99.90;;;;;;5021277;28;20224;-69
2022/06/24 06:49:57;;;;;;;4.07;3.10;;;22.30;99.90;;;;;;5040048;28;21076;-69
2022/06/24 06:52:23;;;;;;;3.40;3.13;;;22.30;99.90;;;;;;5037269;28;20242;-69
2022/06/24 06:54:48;;;;;;;3.30;3.03;;;22.20;99.90;;;;;;5045084;28;20244;-69
2022/06/24 06:57:14;;;;;;;3.77;3.37;;;22.20;99.90;;;;;;5029652;28;20219;-69
2022/06/24 06:59:40;;;;;;;4.23;2.90;;;22.20;99.90;;;;;;5045781;28;20219;-69
2022/06/24 07:02:06;;;;;;;3.37;3.00;;;22.30;99.90;;;;;;5038355;28;20282;-70
2022/06/24 07:04:32;;;;;;;3.63;3.33;;;22.30;99.90;;;;;;5041024;28;20281;-68
2022/06/24 07:06:57;;;;;;;7.70;3.50;;;22.20;99.90;;;;;;5025144;28;20994;-69
2022/06/24 07:09:23;;;;;;;3.93;3.53;;;22.30;99.90;;;;;;5040845;28;20234;-68
2022/06/24 07:11:49;;;;;;;5.20;3.00;;;22.30;99.90;;;;;;5025270;28;20261;-70
2022/06/24 07:14:14;;;;;;;5.57;3.70;;;22.30;99.90;;;;;;5038426;28;20588;-69
2022/06/24 07:16:40;;;;;;;5.40;3.70;;;22.40;99.90;;;;;;5035383;28;20219;-69
2022/06/24 07:19:06;;;;;;;3.67;3.30;;;22.30;99.90;;;;;;5046783;28;20216;-70
2022/06/24 07:21:31;;;;;;;4.43;3.40;;;22.30;99.90;;;;;;5044645;28;20686;-69
2022/06/24 07:23:57;;;;;;;3.57;3.30;;;22.30;99.90;;;;;;5040527;28;20235;-69
2022/06/24 07:26:23;;;;;;;3.13;2.90;;;22.30;99.90;;;;;;5039839;28;20243;-69
2022/06/24 07:28:48;;;;;;;3.77;3.47;;;22.30;99.90;;;;;;5040347;28;20696;-69
2022/06/24 07:31:20;;;;;;;7.20;3.53;;;22.30;99.90;;;;;;5025530;28;20216;-69
2022/06/24 07:33:46;;;;;;;3.87;3.63;;;22.30;99.90;;;;;;5038863;28;20215;-69
2022/06/24 07:36:12;;;;;;;5.93;3.70;;;22.30;99.90;;;;;;5018771;28;20458;-69
2022/06/24 07:38:38;;;;;;;4.90;3.20;;;22.30;99.90;;;;;;5041054;28;26548;-69
2022/06/24 07:41:04;;;;;;;5.20;3.67;;;22.30;99.90;;;;;;5045234;28;20457;-68
2022/06/24 07:43:30;;;;;;;4.40;3.40;;;22.40;99.90;;;;;;5034543;28;20977;-69
2022/06/24 07:45:56;;;;;;;4.00;3.60;;;22.40;99.90;;;;;;5023865;28;20593;-69
2022/06/24 07:48:22;;;;;;;5.37;3.60;;;22.40;99.90;;;;;;5036112;28;20534;-69
2022/06/24 07:50:48;;;;;;;3.53;3.23;;;22.40;99.90;;;;;;5041414;28;20219;-69
2022/06/24 07:53:14;;;;;;;4.20;3.47;;;22.40;99.90;;;;;;5040251;28;20255;-70
2022/06/24 07:58:24;;;;;;;3.63;3.33;;;22.40;99.90;;;;;;5038675;28;20243;-70
2022/06/24 08:00:50;;;;;;;6.03;3.67;;;22.40;99.90;;;;;;5044074;28;20457;-69
2022/06/24 08:03:16;;;;;;;3.93;3.00;;;22.50;99.90;;;;;;5039826;28;20226;-69
2022/06/24 08:05:42;;;;;;;2.90;2.80;;;22.50;99.90;;;;;;5043074;28;20224;-69
2022/06/24 08:08:09;;;;;;;3.33;3.03;;;22.50;99.90;;;;;;5046725;28;20465;-69
2022/06/24 08:10:34;;;;;;;3.70;3.40;;;22.50;99.90;;;;;;5039264;28;20470;-69
2022/06/24 08:13:00;;;;;;;5.20;3.63;;;22.50;99.90;;;;;;5035055;28;20565;-69
2022/06/24 08:15:26;;;;;;;3.27;3.07;;;22.60;99.90;;;;;;5045475;28;20302;-69
2022/06/24 08:17:51;;;;;;;3.83;3.30;;;22.60;99.90;;;;;;5022554;28;20512;-69
2022/06/24 08:20:17;;;;;;;3.83;3.53;;;22.70;99.90;;;;;;5041389;28;20230;-69
2022/06/24 08:22:43;;;;;;;3.70;3.37;;;22.70;99.90;;;;;;5040739;28;20223;-70
2022/06/24 08:25:09;;;;;;;4.60;3.30;;;22.70;99.90;;;;;;5046130;28;20226;-69
2022/06/24 08:27:34;;;;;;;3.50;3.30;;;22.70;99.90;;;;;;5041649;28;20376;-69
2022/06/24 08:30:00;;;;;;;3.87;3.43;;;22.70;99.90;;;;;;5042616;28;20223;-70
2022/06/24 08:32:26;;;;;;;3.33;3.03;;;22.70;99.90;;;;;;5042477;28;20219;-68
2022/06/24 08:34:51;;;;;;;3.73;3.30;;;22.70;99.90;;;;;;5037496;28;20211;-68
2022/06/24 08:37:17;;;;;;;3.90;3.60;;;22.70;99.90;;;;;;5046027;28;20640;-70
2022/06/24 08:39:43;;;;;;;4.50;3.70;;;22.70;99.90;;;;;;5049346;28;20211;-67
2022/06/24 08:42:11;;;;;;;3.70;3.30;;;22.70;99.90;;;;;;5046319;28;20298;-70
2022/06/24 08:44:38;;;;;;;4.30;3.90;;;22.70;99.90;;;;;;5045248;28;20688;-70
2022/06/24 08:47:04;;;;;;;3.40;3.10;;;22.70;99.90;;;;;;5044067;28;20474;-69
2022/06/24 08:49:33;;;;;;;3.57;3.27;;;22.70;99.90;;;;;;5029658;28;20474;-69
2022/06/24 08:52:00;;;;;;;3.80;3.50;;;22.80;99.90;;;;;;5043098;28;20219;-70
2022/06/24 08:54:32;;;;;;;3.43;3.20;;;22.80;99.90;;;;;;5035206;28;21021;-70
2022/06/24 08:56:58;;;;;;;4.33;3.00;;;22.80;99.90;;;;;;5038916;28;20636;-70
2022/06/24 08:59:27;;;;;;;3.43;2.93;;;22.80;99.90;;;;;;5040836;28;20545;-69
2022/06/24 09:01:52;;;;;;;3.40;3.10;;;22.80;99.90;;;;;;5022025;28;20315;-70
2022/06/24 09:04:21;;;;;;;5.33;3.60;;;22.80;99.90;;;;;;5043567;28;20585;-69
2022/06/24 09:06:47;;;;;;;3.73;3.30;;;22.80;99.90;;;;;;5043951;28;20219;-69
2022/06/24 09:09:25;;;;;;;3.13;2.90;;;22.90;99.90;;;;;;5051772;28;20528;-69
2022/06/24 09:11:54;;;;;;;5.30;3.40;;;22.90;99.90;;;;;;5044650;28;20311;-69
2022/06/24 09:14:20;;;;;;;3.53;3.30;;;22.90;99.90;;;;;;5045047;28;20454;-69
2022/06/24 09:16:45;;;;;;;3.53;3.23;;;23.00;99.90;;;;;;5041807;28;20511;-69
2022/06/24 09:19:14;;;;;;;7.00;2.97;;;22.90;99.90;;;;;;5043925;28;20307;-69
2022/06/24 09:21:42;;;;;;;3.30;3.10;;;22.90;99.90;;;;;;5036848;28;20269;-70
2022/06/24 09:24:09;;;;;;;3.70;3.40;;;22.90;99.90;;;;;;5039524;28;20978;-69
2022/06/24 09:26:34;;;;;;;4.47;3.30;;;22.80;99.90;;;;;;5043808;28;20989;-70
2022/06/24 09:29:03;;;;;;;3.03;2.83;;;22.90;99.90;;;;;;5042303;28;20565;-70
2022/06/24 09:31:31;;;;;;;2.80;2.60;;;22.90;99.90;;;;;;5044410;28;20274;-69
2022/06/24 09:34:09;;;;;;;4.07;3.00;;;23.00;99.90;;;;;;5041170;28;20504;-70
2022/06/24 09:36:37;;;;;;;3.53;3.27;;;23.00;99.90;;;;;;5043349;28;20496;-70
2022/06/24 09:39:07;;;;;;;4.53;2.97;;;23.00;99.90;;;;;;5027116;28;20512;-69
2022/06/24 09:41:45;;;;;;;2.90;2.70;;;23.10;99.90;;;;;;5041123;28;20470;-69
2022/06/24 09:44:12;;;;;;;2.70;2.60;;;23.20;99.90;;;;;;5028608;28;21032;-67
2022/06/24 09:46:38;;;;;;;3.00;2.70;;;23.30;99.90;;;;;;5033527;28;20861;-70
2022/06/24 09:49:09;;;;;;;2.57;2.40;;;23.50;99.90;;;;;;5023582;28;20493;-69
2022/06/24 09:51:36;;;;;;;3.27;2.97;;;23.50;99.90;;;;;;5023281;28;20476;-70
2022/06/24 09:54:03;;;;;;;2.70;2.50;;;23.70;99.90;;;;;;5044354;28;21008;-69
2022/06/24 09:56:29;;;;;;;2.67;2.57;;;23.90;99.90;;;;;;5025458;28;20504;-69
2022/06/24 10:01:41;;;;;;;4.00;2.60;;;24.20;99.90;;;;;;5041912;28;20536;-69
2022/06/24 10:04:14;;;;;;;2.83;2.63;;;24.30;99.90;;;;;;5045775;28;20454;-69
2022/06/24 10:06:44;;;;;;;2.60;2.50;;;24.40;99.90;;;;;;5041585;28;20469;-69
2022/06/24 10:09:11;;;;;;;3.00;2.80;;;24.40;99.90;;;;;;5042082;28;21056;-69
2022/06/24 10:11:40;;;;;;;3.07;2.90;;;24.40;99.90;;;;;;5039624;28;21020;-69
2022/06/24 10:14:08;;;;;;;7.13;3.00;;;24.40;99.90;;;;;;5043014;28;20591;-70
2022/06/24 10:16:35;;;;;;;2.70;2.50;;;24.50;99.90;;;;;;5030007;28;21087;-69
2022/06/24 10:19:03;;;;;;;3.13;2.93;;;24.50;99.90;;;;;;5046205;28;20462;-70
2022/06/24 10:21:29;;;;;;;2.80;2.50;;;24.70;99.90;;;;;;5041730;28;20466;-68
2022/06/24 10:23:56;;;;;;;2.90;2.70;;;24.70;99.90;;;;;;5038476;28;20465;-69
2022/06/24 10:26:28;;;;;;;3.27;3.07;;;24.80;99.90;;;;;;5041289;28;20453;-69
2022/06/24 10:29:00;;;;;;;2.90;2.50;;;24.80;99.90;;;;;;5043416;28;20529;-69
2022/06/24 10:31:44;;;;;;;2.80;2.60;;;24.90;99.90;;;;;;5039465;28;20466;-69
2022/06/24 10:34:22;;;;;;;3.60;2.70;;;24.90;99.80;;;;;;5038847;28;20469;-69
2022/06/24 10:36:52;;;;;;;2.60;2.40;;;24.90;98.50;;;;;;5038345;28;20453;-69
2022/06/24 10:39:22;;;;;;;2.70;2.60;;;25.00;99.00;;;;;;5039725;28;20846;-69
2022/06/24 10:41:59;;;;;;;2.80;2.60;;;25.00;99.00;;;;;;5043249;28;20982;-69
2022/06/24 10:44:25;;;;;;;3.13;2.90;;;25.20;99.30;;;;;;5040715;28;20450;-69
2022/06/24 10:47:08;;;;;;;2.53;2.43;;;25.40;99.10;;;;;;5043070;28;20508;-69
2022/06/24 10:49:55;;;;;;;2.70;2.60;;;25.50;98.60;;;;;;5038174;28;20326;-69
2022/06/24 10:52:46;;;;;;;2.80;2.60;;;25.60;98.20;;;;;;5044291;28;20457;-69
2022/06/24 10:55:15;;;;;;;3.13;2.93;;;25.70;97.50;;;;;;5040397;28;20464;-69
2022/06/24 10:57:49;;;;;;;3.00;2.80;;;25.90;97.60;;;;;;5026875;28;20469;-67
2022/06/24 11:00:16;;;;;;;2.90;2.70;;;25.90;97.00;;;;;;5032813;28;20459;-69
2022/06/24 11:02:44;;;;;;;2.87;2.67;;;25.90;97.10;;;;;;5024227;28;20439;-69
2022/06/24 11:05:17;;;;;;;2.90;2.70;;;26.00;96.90;;;;;;5041303;28;20454;-70
2022/06/24 11:07:48;;;;;;;3.80;2.60;;;26.00;96.70;;;;;;5041018;28;20459;-70
2022/06/24 11:10:26;;;;;;;2.53;2.33;;;26.10;96.80;;;;;;5037599;28;20825;-70
2022/06/24 11:12:58;;;;;;;2.87;2.30;;;26.10;96.90;;;;;;5025026;28;20453;-70
2022/06/24 11:15:50;;;;;;;3.10;2.30;;;26.20;96.10;;;;;;5027619;28;20979;-69
2022/06/24 11:18:17;;;;;;;3.40;3.20;;;26.30;96.20;;;;;;5046173;28;20458;-68
2022/06/24 11:20:56;;;;;;;2.80;2.60;;;26.50;96.30;;;;;;5049763;28;20877;-69
2022/06/24 11:23:29;;;;;;;2.93;2.73;;;26.60;95.30;;;;;;5039726;28;20466;-69
2022/06/24 11:26:02;;;;;;;2.80;2.60;;;26.70;95.30;;;;;;5036974;28;20466;-68
2022/06/24 11:28:32;;;;;;;3.30;3.10;;;26.80;95.20;;;;;;5039919;28;20525;-69
2022/06/24 11:31:16;;;;;;;2.43;2.10;;;27.00;95.10;;;;;;5045487;28;20450;-70
2022/06/24 11:33:43;;;;;;;3.27;2.47;;;27.10;95.30;;;;;;5042242;28;20605;-69
2022/06/24 11:36:09;;;;;;;2.70;2.50;;;27.20;94.80;;;;;;5042245;28;20212;-69
2022/06/24 11:39:09;;;;;;;3.03;2.63;;;27.40;93.80;;;;;;5039349;28;20471;-70
2022/06/24 11:41:46;;;;;;;2.83;2.40;;;27.50;93.70;;;;;;5023117;28;20696;-69
2022/06/24 11:44:13;;;;;;;2.77;2.27;;;27.60;94.10;;;;;;5039928;28;20223;-70
2022/06/24 11:46:39;;;;;;;2.80;2.60;;;27.70;94.00;;;;;;5037314;28;20227;-68
2022/06/24 11:49:12;;;;;;;2.58;2.38;;;27.70;93.50;;;;;;5037324;28;21040;-70
2022/06/24 11:51:39;;;;;;;2.73;2.50;;;27.70;93.50;;;;;;5039848;28;20214;-69
2022/06/24 11:54:07;;;;;;;2.90;2.70;;;27.90;93.60;;;;;;5043836;28;20235;-70
2022/06/24 11:56:39;;;;;;;3.17;2.78;;;28.10;93.20;;;;;;5040358;28;20222;-69
2022/06/24 11:59:06;;;;;;;2.42;2.33;;;28.10;92.90;;;;;;5035669;28;20686;-69
2022/06/24 12:01:33;;;;;;;2.78;2.58;;;28.20;93.30;;;;;;5019016;28;20482;-68
2022/06/24 12:04:01;;;;;;;2.95;2.75;;;28.20;92.90;;;;;;5041610;28;20649;-70
2022/06/24 12:06:28;;;;;;;2.40;2.20;;;28.30;92.70;;;;;;5036248;28;20232;-70
2022/06/24 12:08:55;;;;;;;2.65;2.55;;;28.40;93.20;;;;;;5041924;28;20230;-69
2022/06/24 12:11:22;;;;;;;2.78;2.50;;;28.50;92.70;;;;;;5030541;28;20630;-70
2022/06/24 12:13:59;;;;;;;3.05;2.85;;;28.50;92.30;;;;;;5045234;28;20229;-69
2022/06/24 12:16:27;;;;;;;3.67;2.90;;;28.50;91.50;;;;;;5032784;28;20316;-69
2022/06/24 12:18:54;;;;;;;2.72;2.53;;;28.50;92.00;;;;;;5021185;28;20726;-69
2022/06/24 12:21:28;;;;;;;2.20;2.10;;;28.80;91.10;;;;;;5040586;28;20274;-70
2022/06/24 12:23:54;;;;;;;2.40;2.30;;;29.00;91.40;;;;;;5044631;28;20262;-68
2022/06/24 12:26:23;;;;;;;2.60;2.40;;;29.00;90.90;;;;;;5033305;28;20218;-70
2022/06/24 12:29:03;;;;;;;2.47;2.20;;;29.00;90.10;;;;;;5026022;28;20334;-70
2022/06/24 12:31:30;;;;;;;2.30;2.20;;;29.00;90.40;;;;;;5026022;28;20224;-70
2022/06/24 12:33:57;;;;;;;2.42;2.33;;;29.10;90.70;;;;;;5043910;28;20219;-69
2022/06/24 12:36:36;;;;;;;2.10;2.00;;;29.10;90.30;;;;;;5041025;28;20238;-69
2022/06/24 12:39:06;;;;;;;3.25;2.35;;;29.10;90.10;;;;;;5024328;28;20704;-68
2022/06/24 12:41:45;;;;;;;2.42;2.30;;;29.10;89.90;;;;;;5036069;28;20232;-70
2022/06/24 12:44:12;;;;;;;2.67;2.38;;;29.10;90.00;;;;;;5036031;28;20840;-68
2022/06/24 12:50:34;;;;;;;2.65;2.55;;;29.20;89.60;;;;;;5038992;28;20699;-66
2022/06/24 12:53:00;;;;;;;2.22;2.13;;;29.30;87.80;;;;;;5038965;28;20218;-69
2022/06/24 12:55:27;;;;;;;2.35;2.25;;;29.30;89.40;;;;;;4985857;28;20228;-69
2022/06/24 12:57:53;;;;;;;3.63;2.60;;;29.40;89.10;;;;;;5006550;28;20230;-69
2022/06/24 13:00:19;;;;;;;2.25;2.05;;;29.60;90.10;;;;;;5029533;28;20244;-70
2022/06/24 13:02:53;;;;;;;2.60;2.38;;;29.70;88.10;;;;;;5038702;28;20253;-69
2022/06/24 13:05:19;;;;;;;2.25;2.13;;;29.60;87.60;;;;;;5036646;28;20667;-71